createdAt,value
2023-02-25T00:00:28.955Z,90.45
2023-02-25T00:01:28.958Z,90.66
2023-02-25T00:02:28.973Z,90.35
2023-02-25T00:03:28.961Z,89.94
2023-02-25T00:04:28.924Z,89.94
2023-02-25T00:05:31.150Z,90.04
2023-02-25T00:06:28.914Z,90.25
2023-02-25T00:07:28.913Z,90.45
2023-02-25T00:08:28.876Z,89.73
2023-02-25T00:09:28.869Z,89.62
2023-02-25T00:10:28.853Z,89.83
2023-02-25T00:11:28.845Z,90.25
2023-02-25T00:12:28.858Z,90.14
2023-02-25T00:13:28.828Z,89.94
2023-02-25T00:14:28.849Z,89.83
2023-02-25T00:15:28.806Z,89.42
2023-02-25T00:16:28.851Z,89.32
2023-02-25T00:17:28.807Z,89.11
2023-02-25T00:18:28.767Z,89.32
2023-02-25T00:19:28.767Z,88.80
2023-02-25T00:20:28.756Z,88.70
2023-02-25T00:21:28.748Z,89.01
2023-02-25T00:22:28.730Z,88.90
2023-02-25T00:23:28.723Z,88.80
2023-02-25T00:24:28.724Z,88.53
2023-02-25T00:25:28.728Z,88.70
2023-02-25T00:26:28.705Z,88.90
2023-02-25T00:27:28.679Z,88.08
2023-02-25T00:28:28.661Z,87.66
2023-02-25T00:29:28.663Z,86.94
2023-02-25T00:30:28.641Z,86.63
2023-02-25T00:31:28.714Z,87.05
2023-02-25T00:32:28.771Z,87.15
2023-02-25T00:33:28.627Z,86.32
2023-02-25T00:34:28.616Z,86.53
2023-02-25T00:35:28.591Z,86.12
2023-02-25T00:36:28.584Z,85.60
2023-02-25T00:37:28.594Z,84.99
2023-02-25T00:38:28.561Z,84.88
2023-02-25T00:39:28.606Z,84.27
2023-02-25T00:40:28.551Z,83.78
2023-02-25T00:41:28.579Z,83.78
2023-02-25T00:42:28.511Z,83.99
2023-02-25T00:43:28.513Z,84.09
2023-02-25T00:44:28.515Z,83.78
2023-02-25T00:45:28.493Z,83.68
2023-02-25T00:46:28.533Z,83.89
2023-02-25T00:47:28.492Z,83.99
2023-02-25T00:48:28.469Z,84.09
2023-02-25T00:49:32.499Z,83.68
2023-02-25T00:50:28.440Z,83.99
2023-02-25T00:51:28.426Z,84.09
2023-02-25T00:52:28.433Z,84.20
2023-02-25T00:53:28.423Z,84.09
2023-02-25T00:54:28.394Z,83.99
2023-02-25T00:55:28.384Z,83.89
2023-02-25T00:56:28.373Z,83.58
2023-02-25T00:57:28.366Z,84.30
2023-02-25T00:58:28.355Z,84.30
2023-02-25T00:59:28.353Z,84.41
2023-02-25T01:00:28.334Z,84.61
2023-02-25T01:01:28.443Z,84.51
2023-02-25T01:02:28.324Z,84.09
2023-02-25T01:03:28.292Z,84.51
2023-02-25T01:04:28.322Z,84.41
2023-02-25T01:05:28.282Z,84.61
2023-02-25T01:06:28.287Z,84.92
2023-02-25T01:07:28.255Z,85.02
2023-02-25T01:08:28.265Z,85.13
2023-02-25T01:09:28.232Z,85.13
2023-02-25T01:10:28.246Z,85.64
2023-02-25T01:11:28.202Z,85.54
2023-02-25T01:12:28.201Z,85.44
2023-02-25T01:13:28.192Z,84.92
2023-02-25T01:14:28.181Z,85.02
2023-02-25T01:15:28.180Z,84.65
2023-02-25T01:16:28.259Z,85.17
2023-02-25T01:17:28.173Z,85.37
2023-02-25T01:18:28.132Z,85.37
2023-02-25T01:19:28.121Z,85.27
2023-02-25T01:20:28.135Z,86.30
2023-02-25T01:21:28.105Z,85.68
2023-02-25T01:22:28.093Z,85.68
2023-02-25T01:23:28.092Z,85.68
2023-02-25T01:24:28.073Z,84.55
2023-02-25T01:25:28.053Z,83.72
2023-02-25T01:26:28.063Z,83.41
2023-02-25T01:27:28.040Z,83.00
2023-02-25T01:28:28.057Z,83.41
2023-02-25T01:29:28.034Z,83.10
2023-02-25T01:30:28.001Z,83.10
2023-02-25T01:31:28.209Z,83.93
2023-02-25T01:32:28.062Z,82.89
2023-02-25T01:33:27.972Z,82.48
2023-02-25T01:34:27.982Z,82.89
2023-02-25T01:35:27.962Z,83.51
2023-02-25T01:36:27.947Z,83.20
2023-02-25T01:37:27.943Z,83.72
2023-02-25T01:38:27.926Z,83.83
2023-02-25T01:39:27.904Z,83.41
2023-02-25T01:40:27.917Z,83.51
2023-02-25T01:41:27.890Z,83.72
2023-02-25T01:42:27.895Z,83.83
2023-02-25T01:43:27.875Z,84.13
2023-02-25T01:44:27.857Z,84.13
2023-02-25T01:45:27.851Z,84.44
2023-02-25T01:46:27.849Z,84.55
2023-02-25T01:47:27.849Z,84.34
2023-02-25T01:48:27.852Z,84.44
2023-02-25T01:49:27.801Z,84.55
2023-02-25T01:50:27.799Z,84.65
2023-02-25T01:51:27.810Z,84.03
2023-02-25T01:52:27.806Z,83.83
2023-02-25T01:53:27.790Z,84.03
2023-02-25T01:54:27.763Z,83.93
2023-02-25T01:55:27.744Z,84.34
2023-02-25T01:56:27.729Z,84.23
2023-02-25T01:57:27.741Z,83.83
2023-02-25T01:58:27.724Z,84.23
2023-02-25T01:59:27.703Z,84.23
2023-02-25T02:00:27.762Z,83.72
2023-02-25T02:01:27.680Z,82.89
2023-02-25T02:02:27.723Z,82.38
2023-02-25T02:03:27.660Z,82.38
2023-02-25T02:04:27.650Z,82.79
2023-02-25T02:05:27.672Z,82.17
2023-02-25T02:06:27.666Z,82.17
2023-02-25T02:07:27.621Z,81.86
2023-02-25T02:08:27.606Z,82.17
2023-02-25T02:09:27.624Z,81.76
2023-02-25T02:10:27.598Z,81.86
2023-02-25T02:11:27.584Z,81.04
2023-02-25T02:12:27.587Z,80.93
2023-02-25T02:13:27.562Z,81.14
2023-02-25T02:14:27.561Z,81.35
2023-02-25T02:15:27.522Z,81.56
2023-02-25T02:16:27.648Z,81.96
2023-02-25T02:17:30.094Z,81.56
2023-02-25T02:18:27.501Z,81.24
2023-02-25T02:19:27.523Z,81.24
2023-02-25T02:20:27.518Z,81.56
2023-02-25T02:21:27.463Z,81.14
2023-02-25T02:22:27.462Z,80.87
2023-02-25T02:23:27.452Z,81.24
2023-02-25T02:24:27.466Z,81.66
2023-02-25T02:25:27.433Z,81.24
2023-02-25T02:26:27.433Z,81.04
2023-02-25T02:27:27.414Z,81.35
2023-02-25T02:28:27.426Z,81.35
2023-02-25T02:29:27.382Z,80.93
2023-02-25T02:30:27.421Z,80.73
2023-02-25T02:31:27.505Z,81.14
2023-02-25T02:32:27.412Z,80.83
2023-02-25T02:33:27.345Z,81.14
2023-02-25T02:34:27.347Z,81.66
2023-02-25T02:35:27.343Z,81.76
2023-02-25T02:36:27.324Z,81.35
2023-02-25T02:37:27.313Z,81.45
2023-02-25T02:38:27.323Z,81.35
2023-02-25T02:39:27.274Z,81.24
2023-02-25T02:40:27.267Z,81.45
2023-02-25T02:41:27.265Z,81.56
2023-02-25T02:42:27.274Z,81.66
2023-02-25T02:43:27.246Z,81.86
2023-02-25T02:44:27.249Z,82.28
2023-02-25T02:45:27.238Z,82.59
2023-02-25T02:46:27.211Z,82.52
2023-02-25T02:47:27.201Z,82.48
2023-02-25T02:48:27.188Z,82.69
2023-02-25T02:49:27.168Z,82.79
2023-02-25T02:50:27.181Z,83.10
2023-02-25T02:51:27.141Z,83.20
2023-02-25T02:52:27.151Z,82.48
2023-02-25T02:53:27.147Z,82.48
2023-02-25T02:54:27.121Z,82.48
2023-02-25T02:55:27.099Z,82.28
2023-02-25T02:56:27.120Z,82.38
2023-02-25T02:57:27.103Z,82.28
2023-02-25T02:58:27.081Z,82.21
2023-02-25T02:59:27.059Z,82.31
2023-02-25T03:00:27.050Z,82.42
2023-02-25T03:01:27.158Z,82.28
2023-02-25T03:02:27.041Z,82.00
2023-02-25T03:03:27.030Z,81.96
2023-02-25T03:04:27.013Z,82.00
2023-02-25T03:05:27.017Z,81.90
2023-02-25T03:06:26.989Z,81.76
2023-02-25T03:07:26.979Z,81.76
2023-02-25T03:08:26.972Z,81.80
2023-02-25T03:09:26.969Z,82.00
2023-02-25T03:10:26.967Z,81.90
2023-02-25T03:11:26.963Z,81.80
2023-02-25T03:12:26.965Z,82.00
2023-02-25T03:13:26.910Z,81.90
2023-02-25T03:14:26.910Z,82.21
2023-02-25T03:15:26.960Z,82.42
2023-02-25T03:16:26.916Z,81.90
2023-02-25T03:17:26.859Z,81.80
2023-02-25T03:18:26.873Z,81.80
2023-02-25T03:19:26.856Z,82.00
2023-02-25T03:20:26.836Z,81.70
2023-02-25T03:21:26.836Z,81.80
2023-02-25T03:22:26.854Z,82.62
2023-02-25T03:23:26.802Z,81.90
2023-02-25T03:24:26.801Z,81.90
2023-02-25T03:25:26.797Z,81.90
2023-02-25T03:26:26.789Z,81.70
2023-02-25T03:27:26.799Z,81.59
2023-02-25T03:28:26.791Z,81.38
2023-02-25T03:29:26.760Z,80.97
2023-02-25T03:30:26.751Z,81.28
2023-02-25T03:31:26.785Z,81.28
2023-02-25T03:32:26.829Z,81.59
2023-02-25T03:33:26.741Z,82.10
2023-02-25T03:34:26.706Z,82.15
2023-02-25T03:35:26.690Z,81.73
2023-02-25T03:36:26.689Z,81.63
2023-02-25T03:37:26.680Z,81.63
2023-02-25T03:38:26.662Z,81.84
2023-02-25T03:39:26.667Z,81.84
2023-02-25T03:40:26.660Z,82.04
2023-02-25T03:41:26.630Z,81.73
2023-02-25T03:42:26.621Z,81.73
2023-02-25T03:43:26.622Z,82.04
2023-02-25T03:44:26.593Z,82.15
2023-02-25T03:45:26.575Z,82.25
2023-02-25T03:46:26.991Z,81.84
2023-02-25T03:47:26.584Z,81.73
2023-02-25T03:48:26.555Z,81.73
2023-02-25T03:49:26.534Z,81.77
2023-02-25T03:50:26.562Z,81.67
2023-02-25T03:51:26.514Z,81.98
2023-02-25T03:52:26.524Z,81.87
2023-02-25T03:53:26.503Z,81.98
2023-02-25T03:54:26.492Z,82.08
2023-02-25T03:55:26.492Z,82.18
2023-02-25T03:56:26.472Z,81.98
2023-02-25T03:57:26.467Z,81.98
2023-02-25T03:58:26.463Z,82.08
2023-02-25T03:59:26.440Z,81.98
2023-02-25T04:00:26.449Z,81.98
2023-02-25T04:01:26.423Z,81.87
2023-02-25T04:02:26.404Z,81.98
2023-02-25T04:03:26.391Z,81.25
2023-02-25T04:04:26.459Z,81.35
2023-02-25T04:05:26.377Z,80.94
2023-02-25T04:06:26.375Z,80.32
2023-02-25T04:07:26.360Z,80.32
2023-02-25T04:08:26.349Z,80.53
2023-02-25T04:09:26.311Z,79.70
2023-02-25T04:10:26.344Z,79.80
2023-02-25T04:11:26.289Z,80.11
2023-02-25T04:12:26.289Z,79.80
2023-02-25T04:13:26.300Z,80.01
2023-02-25T04:14:26.262Z,79.60
2023-02-25T04:15:26.286Z,79.60
2023-02-25T04:16:26.241Z,79.08
2023-02-25T04:17:26.258Z,79.80
2023-02-25T04:18:26.239Z,79.39
2023-02-25T04:19:26.235Z,79.22
2023-02-25T04:20:26.213Z,79.43
2023-02-25T04:21:26.219Z,79.53
2023-02-25T04:22:26.198Z,79.94
2023-02-25T04:23:26.181Z,79.63
2023-02-25T04:24:26.191Z,79.63
2023-02-25T04:25:26.156Z,79.53
2023-02-25T04:26:26.167Z,79.43
2023-02-25T04:27:26.144Z,79.84
2023-02-25T04:28:26.144Z,79.74
2023-02-25T04:29:26.102Z,79.63
2023-02-25T04:30:26.246Z,81.09
2023-02-25T04:31:26.218Z,82.12
2023-02-25T04:32:26.173Z,82.70
2023-02-25T04:33:26.116Z,81.67
2023-02-25T04:34:26.052Z,80.94
2023-02-25T04:35:26.056Z,80.32
2023-02-25T04:36:26.790Z,80.63
2023-02-25T04:37:26.044Z,81.98
2023-02-25T04:38:26.011Z,81.25
2023-02-25T04:39:26.012Z,80.63
2023-02-25T04:40:25.998Z,79.49
2023-02-25T04:41:25.983Z,80.01
2023-02-25T04:42:26.000Z,81.25
2023-02-25T04:43:25.953Z,79.70
2023-02-25T04:44:25.962Z,78.98
2023-02-25T04:45:27.009Z,79.08
2023-02-25T04:46:26.515Z,79.49
2023-02-25T04:47:25.930Z,79.39
2023-02-25T04:48:25.903Z,80.01
2023-02-25T04:49:25.911Z,79.08
2023-02-25T04:50:25.899Z,78.98
2023-02-25T04:51:25.875Z,77.84
2023-02-25T04:52:25.868Z,78.25
2023-02-25T04:53:25.852Z,77.74
2023-02-25T04:54:25.844Z,77.94
2023-02-25T04:55:25.860Z,78.05
2023-02-25T04:56:26.028Z,78.15
2023-02-25T04:57:25.823Z,78.25
2023-02-25T04:58:25.804Z,78.05
2023-02-25T04:59:25.794Z,77.22
2023-02-25T05:00:25.800Z,77.26
2023-02-25T05:01:25.819Z,77.36
2023-02-25T05:02:25.776Z,78.08
2023-02-25T05:03:25.744Z,78.39
2023-02-25T05:04:25.796Z,77.77
2023-02-25T05:05:25.793Z,77.77
2023-02-25T05:06:25.963Z,77.67
2023-02-25T05:07:25.719Z,77.87
2023-02-25T05:08:25.687Z,77.87
2023-02-25T05:09:25.698Z,77.56
2023-02-25T05:10:25.679Z,77.36
2023-02-25T05:11:25.679Z,77.77
2023-02-25T05:12:25.657Z,77.87
2023-02-25T05:13:25.637Z,78.08
2023-02-25T05:14:25.627Z,77.87
2023-02-25T05:15:25.654Z,77.36
2023-02-25T05:16:26.121Z,77.36
2023-02-25T05:17:25.599Z,77.05
2023-02-25T05:18:25.600Z,77.36
2023-02-25T05:19:25.587Z,77.26
2023-02-25T05:20:25.661Z,76.43
2023-02-25T05:21:26.294Z,76.22
2023-02-25T05:22:26.573Z,76.43
2023-02-25T05:23:25.840Z,75.50
2023-02-25T05:24:25.537Z,75.91
2023-02-25T05:25:26.228Z,76.53
2023-02-25T05:26:25.874Z,75.91
2023-02-25T05:27:26.502Z,75.91
2023-02-25T05:28:25.522Z,76.12
2023-02-25T05:29:25.792Z,76.12
2023-02-25T05:30:25.489Z,76.12
2023-02-25T05:31:25.685Z,75.91
2023-02-25T05:32:25.580Z,76.32
2023-02-25T05:33:25.466Z,75.60
2023-02-25T05:34:25.442Z,75.40
2023-02-25T05:35:25.400Z,75.40
2023-02-25T05:36:28.084Z,75.40
2023-02-25T05:37:25.400Z,75.29
2023-02-25T05:38:25.416Z,74.98
2023-02-25T05:39:25.385Z,74.88
2023-02-25T05:40:25.366Z,74.98
2023-02-25T05:41:25.425Z,74.67
2023-02-25T05:42:25.353Z,74.77
2023-02-25T05:43:25.402Z,74.67
2023-02-25T05:44:25.345Z,74.77
2023-02-25T05:45:25.344Z,74.88
2023-02-25T05:46:25.703Z,74.98
2023-02-25T05:47:25.288Z,75.09
2023-02-25T05:48:25.271Z,74.88
2023-02-25T05:49:25.260Z,75.09
2023-02-25T05:50:25.278Z,74.77
2023-02-25T05:51:25.246Z,75.09
2023-02-25T05:52:25.236Z,74.77
2023-02-25T05:53:25.228Z,74.67
2023-02-25T05:54:25.201Z,74.88
2023-02-25T05:55:25.239Z,75.09
2023-02-25T05:56:25.840Z,74.67
2023-02-25T05:57:25.190Z,74.88
2023-02-25T05:58:25.159Z,74.98
2023-02-25T05:59:25.161Z,75.29
2023-02-25T06:00:25.136Z,75.09
2023-02-25T06:01:25.148Z,74.98
2023-02-25T06:02:25.337Z,74.98
2023-02-25T06:03:25.305Z,74.98
2023-02-25T06:04:25.102Z,75.09
2023-02-25T06:05:25.105Z,74.36
2023-02-25T06:06:25.593Z,74.88
2023-02-25T06:07:25.066Z,74.67
2023-02-25T06:08:25.091Z,74.77
2023-02-25T06:09:25.060Z,75.09
2023-02-25T06:10:25.042Z,74.98
2023-02-25T06:11:25.048Z,74.57
2023-02-25T06:12:25.027Z,74.67
2023-02-25T06:13:24.996Z,74.67
2023-02-25T06:14:25.005Z,74.77
2023-02-25T06:15:24.988Z,74.46
2023-02-25T06:16:25.386Z,74.36
2023-02-25T06:17:24.960Z,74.36
2023-02-25T06:18:24.973Z,74.57
2023-02-25T06:19:24.938Z,73.84
2023-02-25T06:20:24.925Z,74.46
2023-02-25T06:21:24.949Z,74.05
2023-02-25T06:22:24.898Z,74.36
2023-02-25T06:23:24.919Z,73.94
2023-02-25T06:24:24.894Z,73.94
2023-02-25T06:25:24.877Z,74.67
2023-02-25T06:26:25.178Z,74.36
2023-02-25T06:27:24.852Z,74.67
2023-02-25T06:28:24.850Z,74.46
2023-02-25T06:29:24.867Z,74.67
2023-02-25T06:30:24.881Z,75.19
2023-02-25T06:31:24.870Z,74.46
2023-02-25T06:32:25.012Z,73.84
2023-02-25T06:33:24.822Z,74.12
2023-02-25T06:34:24.769Z,74.02
2023-02-25T06:35:24.781Z,74.22
2023-02-25T06:36:25.094Z,74.43
2023-02-25T06:37:24.741Z,74.53
2023-02-25T06:38:24.754Z,74.74
2023-02-25T06:39:24.723Z,74.33
2023-02-25T06:40:24.712Z,73.91
2023-02-25T06:41:24.704Z,73.71
2023-02-25T06:42:24.683Z,73.81
2023-02-25T06:43:24.705Z,73.91
2023-02-25T06:44:24.684Z,74.12
2023-02-25T06:45:24.662Z,74.02
2023-02-25T06:46:25.185Z,74.22
2023-02-25T06:47:24.636Z,74.02
2023-02-25T06:48:24.643Z,74.02
2023-02-25T06:49:24.635Z,73.81
2023-02-25T06:50:24.612Z,73.91
2023-02-25T06:51:24.593Z,73.91
2023-02-25T06:52:24.585Z,74.33
2023-02-25T06:53:24.596Z,74.53
2023-02-25T06:54:24.587Z,74.46
2023-02-25T06:55:24.591Z,74.63
2023-02-25T06:56:24.941Z,74.63
2023-02-25T06:57:24.544Z,74.84
2023-02-25T06:58:24.528Z,74.22
2023-02-25T06:59:24.510Z,74.53
2023-02-25T07:00:24.495Z,74.74
2023-02-25T07:01:24.587Z,74.53
2023-02-25T07:02:24.483Z,74.12
2023-02-25T07:03:24.465Z,74.22
2023-02-25T07:04:24.489Z,74.53
2023-02-25T07:05:24.444Z,74.12
2023-02-25T07:06:24.726Z,74.53
2023-02-25T07:07:24.443Z,74.53
2023-02-25T07:08:24.424Z,74.63
2023-02-25T07:09:24.422Z,74.84
2023-02-25T07:10:24.394Z,74.95
2023-02-25T07:11:24.405Z,75.36
2023-02-25T07:12:24.386Z,75.36
2023-02-25T07:13:24.374Z,75.57
2023-02-25T07:14:24.353Z,75.88
2023-02-25T07:15:24.333Z,75.46
2023-02-25T07:16:24.606Z,75.15
2023-02-25T07:17:24.344Z,74.84
2023-02-25T07:18:24.314Z,74.95
2023-02-25T07:19:24.303Z,74.84
2023-02-25T07:20:24.302Z,73.71
2023-02-25T07:21:24.287Z,73.81
2023-02-25T07:22:24.408Z,74.12
2023-02-25T07:23:24.275Z,74.22
2023-02-25T07:24:24.246Z,74.02
2023-02-25T07:25:24.309Z,73.29
2023-02-25T07:26:24.500Z,73.39
2023-02-25T07:27:24.231Z,73.50
2023-02-25T07:28:24.196Z,73.81
2023-02-25T07:29:24.195Z,72.88
2023-02-25T07:30:24.190Z,72.78
2023-02-25T07:31:24.722Z,72.98
2023-02-25T07:32:24.358Z,72.64
2023-02-25T07:33:24.145Z,72.53
2023-02-25T07:34:24.135Z,72.95
2023-02-25T07:35:24.142Z,72.53
2023-02-25T07:36:24.138Z,72.74
2023-02-25T07:37:24.117Z,72.43
2023-02-25T07:38:24.108Z,72.43
2023-02-25T07:39:24.100Z,72.43
2023-02-25T07:40:24.092Z,72.33
2023-02-25T07:41:24.342Z,72.22
2023-02-25T07:42:24.071Z,72.12
2023-02-25T07:43:24.049Z,72.43
2023-02-25T07:44:24.029Z,72.22
2023-02-25T07:45:24.033Z,72.43
2023-02-25T07:46:24.104Z,72.53
2023-02-25T07:47:24.018Z,72.53
2023-02-25T07:48:24.011Z,72.53
2023-02-25T07:49:23.994Z,72.53
2023-02-25T07:50:23.983Z,72.64
2023-02-25T07:51:24.463Z,71.67
2023-02-25T07:52:23.956Z,71.40
2023-02-25T07:53:24.070Z,71.26
2023-02-25T07:54:23.932Z,71.47
2023-02-25T07:55:23.934Z,70.85
2023-02-25T07:56:23.904Z,70.54
2023-02-25T07:57:23.920Z,70.95
2023-02-25T07:58:23.883Z,70.43
2023-02-25T07:59:23.882Z,70.23
2023-02-25T08:00:23.903Z,70.33
2023-02-25T08:01:24.264Z,70.54
2023-02-25T08:02:23.856Z,70.23
2023-02-25T08:03:23.845Z,70.64
2023-02-25T08:04:23.862Z,71.16
2023-02-25T08:05:23.815Z,70.95
2023-02-25T08:06:23.814Z,70.43
2023-02-25T08:07:23.832Z,70.75
2023-02-25T08:08:23.774Z,70.64
2023-02-25T08:09:23.786Z,70.23
2023-02-25T08:10:23.763Z,69.30
2023-02-25T08:11:24.102Z,69.74
2023-02-25T08:12:23.754Z,69.61
2023-02-25T08:13:23.739Z,69.82
2023-02-25T08:14:23.745Z,70.12
2023-02-25T08:15:23.705Z,69.92
2023-02-25T08:16:23.846Z,70.03
2023-02-25T08:17:23.695Z,70.23
2023-02-25T08:18:23.680Z,69.92
2023-02-25T08:19:23.696Z,69.71
2023-02-25T08:20:23.658Z,69.51
2023-02-25T08:21:24.298Z,69.40
2023-02-25T08:22:23.641Z,69.51
2023-02-25T08:23:23.636Z,69.51
2023-02-25T08:24:23.633Z,70.12
2023-02-25T08:25:23.618Z,70.33
2023-02-25T08:26:23.648Z,70.23
2023-02-25T08:27:23.590Z,70.43
2023-02-25T08:28:23.565Z,70.03
2023-02-25T08:29:23.576Z,69.20
2023-02-25T08:30:23.556Z,69.68
2023-02-25T08:31:23.964Z,69.78
2023-02-25T08:32:23.604Z,69.17
2023-02-25T08:33:23.529Z,69.48
2023-02-25T08:34:23.508Z,69.17
2023-02-25T08:35:23.545Z,68.75
2023-02-25T08:36:23.492Z,68.54
2023-02-25T08:37:23.479Z,68.96
2023-02-25T08:38:23.478Z,68.30
2023-02-25T08:39:23.458Z,68.00
2023-02-25T08:40:23.466Z,67.79
2023-02-25T08:41:23.911Z,67.38
2023-02-25T08:42:23.431Z,67.27
2023-02-25T08:43:23.425Z,67.27
2023-02-25T08:44:23.410Z,67.79
2023-02-25T08:45:23.409Z,67.79
2023-02-25T08:46:23.408Z,68.07
2023-02-25T08:47:23.406Z,68.48
2023-02-25T08:48:23.372Z,67.35
2023-02-25T08:49:23.352Z,67.35
2023-02-25T08:50:23.347Z,67.42
2023-02-25T08:51:23.850Z,65.67
2023-02-25T08:52:23.316Z,65.15
2023-02-25T08:53:23.332Z,64.43
2023-02-25T08:54:23.324Z,63.92
2023-02-25T08:55:23.294Z,64.46
2023-02-25T08:56:23.269Z,65.05
2023-02-25T08:57:23.266Z,64.53
2023-02-25T08:58:23.252Z,63.53
2023-02-25T08:59:23.235Z,63.12
2023-02-25T09:00:23.282Z,62.81
2023-02-25T09:01:23.686Z,62.50
2023-02-25T09:02:23.203Z,62.92
2023-02-25T09:03:23.212Z,63.12
2023-02-25T09:04:23.501Z,63.53
2023-02-25T09:05:23.206Z,63.84
2023-02-25T09:06:23.176Z,63.53
2023-02-25T09:07:23.187Z,63.53
2023-02-25T09:08:23.141Z,63.32
2023-02-25T09:09:23.167Z,63.74
2023-02-25T09:10:23.144Z,64.15
2023-02-25T09:11:23.404Z,64.56
2023-02-25T09:12:24.822Z,64.36
2023-02-25T09:13:23.091Z,64.46
2023-02-25T09:14:23.107Z,64.77
2023-02-25T09:15:23.085Z,65.39
2023-02-25T09:16:23.122Z,65.28
2023-02-25T09:17:23.049Z,65.15
2023-02-25T09:18:23.065Z,64.64
2023-02-25T09:19:23.047Z,64.02
2023-02-25T09:20:23.175Z,63.92
2023-02-25T09:21:23.386Z,63.40
2023-02-25T09:22:22.996Z,62.71
2023-02-25T09:23:22.977Z,62.68
2023-02-25T09:24:22.996Z,62.78
2023-02-25T09:25:22.967Z,62.57
2023-02-25T09:26:22.949Z,62.57
2023-02-25T09:27:23.054Z,62.37
2023-02-25T09:28:24.519Z,63.19
2023-02-25T09:29:22.931Z,62.47
2023-02-25T09:30:22.953Z,62.06
2023-02-25T09:31:23.482Z,61.96
2023-02-25T09:32:22.985Z,62.26
2023-02-25T09:33:22.889Z,62.24
2023-02-25T09:34:22.869Z,61.93
2023-02-25T09:35:22.859Z,62.24
2023-02-25T09:36:22.859Z,61.69
2023-02-25T09:37:22.830Z,60.56
2023-02-25T09:38:22.863Z,60.66
2023-02-25T09:39:22.819Z,60.15
2023-02-25T09:40:22.873Z,59.84
2023-02-25T09:41:23.013Z,59.63
2023-02-25T09:42:22.813Z,59.74
2023-02-25T09:43:22.780Z,59.74
2023-02-25T09:44:22.764Z,59.33
2023-02-25T09:45:22.761Z,59.12
2023-02-25T09:46:22.770Z,59.12
2023-02-25T09:47:22.746Z,59.33
2023-02-25T09:48:22.733Z,58.91
2023-02-25T09:49:22.721Z,59.42
2023-02-25T09:50:22.717Z,59.63
2023-02-25T09:51:23.120Z,60.15
2023-02-25T09:52:22.695Z,59.84
2023-02-25T09:53:22.709Z,59.53
2023-02-25T09:54:22.693Z,59.33
2023-02-25T09:55:22.644Z,59.84
2023-02-25T09:56:22.638Z,60.05
2023-02-25T09:57:22.667Z,59.84
2023-02-25T09:58:22.634Z,60.15
2023-02-25T09:59:22.615Z,60.25
2023-02-25T10:00:22.625Z,60.66
2023-02-25T10:01:22.843Z,60.56
2023-02-25T10:02:22.688Z,60.53
2023-02-25T10:03:22.581Z,60.94
2023-02-25T10:04:22.564Z,60.02
2023-02-25T10:05:22.583Z,60.02
2023-02-25T10:06:22.529Z,60.33
2023-02-25T10:07:22.555Z,59.70
2023-02-25T10:08:22.528Z,60.02
2023-02-25T10:09:22.504Z,59.91
2023-02-25T10:10:22.512Z,59.81
2023-02-25T10:11:22.759Z,59.91
2023-02-25T10:12:22.496Z,60.22
2023-02-25T10:13:22.470Z,59.89
2023-02-25T10:14:22.452Z,59.47
2023-02-25T10:15:22.467Z,58.47
2023-02-25T10:16:22.490Z,58.68
2023-02-25T10:17:22.422Z,59.19
2023-02-25T10:18:22.441Z,59.50
2023-02-25T10:19:22.413Z,59.50
2023-02-25T10:20:22.391Z,59.30
2023-02-25T10:21:22.682Z,59.70
2023-02-25T10:22:22.379Z,59.91
2023-02-25T10:23:22.371Z,59.70
2023-02-25T10:24:22.353Z,59.81
2023-02-25T10:25:22.339Z,59.09
2023-02-25T10:26:22.342Z,58.78
2023-02-25T10:27:22.336Z,58.47
2023-02-25T10:28:22.307Z,58.37
2023-02-25T10:29:22.309Z,57.96
2023-02-25T10:30:22.281Z,58.58
2023-02-25T10:31:22.806Z,58.89
2023-02-25T10:32:22.365Z,58.89
2023-02-25T10:33:22.253Z,58.68
2023-02-25T10:34:22.275Z,58.37
2023-02-25T10:35:22.251Z,58.47
2023-02-25T10:36:22.242Z,58.98
2023-02-25T10:37:22.212Z,58.16
2023-02-25T10:38:22.202Z,58.26
2023-02-25T10:39:22.181Z,58.58
2023-02-25T10:40:22.187Z,58.58
2023-02-25T10:41:22.535Z,58.29
2023-02-25T10:42:22.163Z,58.70
2023-02-25T10:43:22.151Z,58.89
2023-02-25T10:44:22.151Z,58.98
2023-02-25T10:45:22.124Z,58.89
2023-02-25T10:46:22.231Z,58.68
2023-02-25T10:47:22.093Z,58.78
2023-02-25T10:48:22.111Z,58.98
2023-02-25T10:49:22.093Z,59.30
2023-02-25T10:50:23.122Z,59.40
2023-02-25T10:51:22.335Z,59.19
2023-02-25T10:52:22.069Z,59.30
2023-02-25T10:53:24.109Z,58.98
2023-02-25T10:54:22.043Z,59.30
2023-02-25T10:55:22.034Z,58.98
2023-02-25T10:56:22.054Z,58.68
2023-02-25T10:57:22.004Z,59.30
2023-02-25T10:58:21.994Z,59.61
2023-02-25T10:59:22.003Z,59.70
2023-02-25T11:00:21.975Z,59.70
2023-02-25T11:01:22.447Z,59.91
2023-02-25T11:02:21.959Z,60.02
2023-02-25T11:03:21.975Z,60.02
2023-02-25T11:04:21.924Z,59.40
2023-02-25T11:05:21.943Z,59.17
2023-02-25T11:06:23.268Z,58.96
2023-02-25T11:07:21.884Z,58.83
2023-02-25T11:08:21.895Z,58.73
2023-02-25T11:09:21.864Z,59.03
2023-02-25T11:10:21.886Z,58.91
2023-02-25T11:11:22.255Z,59.01
2023-02-25T11:12:21.857Z,59.01
2023-02-25T11:13:21.826Z,58.87
2023-02-25T11:14:21.827Z,58.64
2023-02-25T11:15:23.902Z,58.64
2023-02-25T11:16:22.858Z,58.23
2023-02-25T11:17:21.797Z,58.54
2023-02-25T11:18:21.782Z,58.23
2023-02-25T11:19:21.874Z,58.87
2023-02-25T11:20:21.759Z,58.87
2023-02-25T11:21:22.160Z,59.11
2023-02-25T11:22:21.768Z,60.03
2023-02-25T11:23:21.720Z,59.93
2023-02-25T11:24:21.711Z,60.17
2023-02-25T11:25:21.696Z,61.07
2023-02-25T11:26:21.689Z,60.78
2023-02-25T11:27:21.698Z,60.17
2023-02-25T11:28:21.679Z,60.58
2023-02-25T11:29:21.668Z,60.68
2023-02-25T11:30:21.659Z,60.71
2023-02-25T11:31:21.944Z,61.33
2023-02-25T11:32:21.872Z,61.63
2023-02-25T11:33:21.637Z,61.53
2023-02-25T11:34:21.610Z,60.91
2023-02-25T11:35:21.653Z,61.25
2023-02-25T11:36:21.829Z,61.77
2023-02-25T11:37:21.595Z,61.98
2023-02-25T11:38:21.577Z,62.49
2023-02-25T11:39:21.567Z,61.98
2023-02-25T11:40:21.550Z,62.18
2023-02-25T11:41:21.755Z,62.18
2023-02-25T11:42:21.545Z,62.46
2023-02-25T11:44:21.523Z,62.15
2023-02-25T11:45:21.487Z,61.94
2023-02-25T11:46:21.756Z,61.94
2023-02-25T11:47:21.490Z,62.46
2023-02-25T11:48:21.474Z,62.46
2023-02-25T11:49:21.452Z,62.12
2023-02-25T11:50:21.456Z,62.02
2023-02-25T11:51:21.442Z,62.43
2023-02-25T11:52:21.448Z,62.12
2023-02-25T11:53:21.420Z,61.91
2023-02-25T11:54:21.397Z,61.81
2023-02-25T11:55:21.398Z,61.74
2023-02-25T11:56:21.731Z,61.43
2023-02-25T11:57:21.369Z,61.33
2023-02-25T11:58:21.356Z,61.33
2023-02-25T11:59:21.325Z,61.43
2023-02-25T12:00:21.343Z,60.91
2023-02-25T12:01:21.340Z,61.22
2023-02-25T12:02:21.319Z,61.43
2023-02-25T12:03:21.314Z,61.84
2023-02-25T12:04:21.279Z,62.15
2023-02-25T12:05:21.298Z,62.12
2023-02-25T12:06:21.712Z,61.84
2023-02-25T12:07:21.261Z,62.05
2023-02-25T12:08:21.264Z,62.46
2023-02-25T12:09:21.226Z,62.35
2023-02-25T12:10:21.239Z,62.87
2023-02-25T12:11:23.226Z,62.77
2023-02-25T12:12:21.222Z,63.18
2023-02-25T12:13:21.196Z,63.39
2023-02-25T12:14:21.170Z,63.00
2023-02-25T12:15:21.175Z,63.31
2023-02-25T12:16:21.300Z,63.52
2023-02-25T12:17:21.158Z,63.72
2023-02-25T12:18:21.162Z,63.72
2023-02-25T12:19:21.139Z,63.75
2023-02-25T12:20:21.120Z,64.06
2023-02-25T12:21:21.326Z,64.37
2023-02-25T12:22:21.101Z,64.40
2023-02-25T12:23:21.071Z,64.71
2023-02-25T12:24:21.085Z,64.92
2023-02-25T12:25:21.063Z,65.33
2023-02-25T12:26:21.072Z,65.53
2023-02-25T12:27:21.040Z,65.43
2023-02-25T12:28:21.154Z,65.64
2023-02-25T12:29:21.042Z,65.43
2023-02-25T12:30:21.044Z,65.64
2023-02-25T12:31:21.150Z,66.18
2023-02-25T12:32:21.326Z,66.91
2023-02-25T12:33:21.013Z,67.21
2023-02-25T12:34:22.816Z,67.11
2023-02-25T12:35:20.966Z,67.32
2023-02-25T12:36:20.971Z,68.24
2023-02-25T12:37:21.632Z,68.96
2023-02-25T12:38:20.963Z,69.69
2023-02-25T12:39:20.915Z,71.44
2023-02-25T12:40:20.962Z,71.95
2023-02-25T12:41:20.990Z,72.58
2023-02-25T12:42:20.903Z,74.26
2023-02-25T12:43:20.868Z,74.36
2023-02-25T12:44:20.893Z,76.32
2023-02-25T12:45:20.846Z,76.63
2023-02-25T12:46:20.843Z,76.67
2023-02-25T12:47:20.873Z,76.84
2023-02-25T12:48:20.812Z,76.53
2023-02-25T12:49:20.827Z,76.12
2023-02-25T12:50:20.825Z,76.04
2023-02-25T12:51:21.016Z,76.25
2023-02-25T12:52:20.789Z,76.35
2023-02-25T12:53:20.774Z,76.87